createdAt,value
2019-03-09T00:01:14.956Z,15.23
2019-03-09T00:03:46.577Z,8.88
2019-03-09T00:06:18.247Z,11.50
2019-03-09T00:08:50.591Z,8.58
2019-03-09T00:11:21.843Z,8.53
2019-03-09T00:13:53.115Z,9.73
2019-03-09T00:16:24.635Z,16.00
2019-03-09T00:18:55.912Z,9.58
2019-03-09T00:21:27.580Z,7.00
2019-03-09T00:24:17.690Z,8.28
2019-03-09T00:27:17.060Z,4.90
2019-03-09T00:30:04.844Z,10.25
2019-03-09T00:32:36.152Z,11.38
2019-03-09T00:35:07.493Z,15.53
2019-03-09T00:37:38.688Z,7.47
2019-03-09T00:40:13.142Z,7.60
2019-03-09T00:42:44.281Z,6.72
2019-03-09T00:45:15.558Z,8.45
2019-03-09T00:47:46.836Z,14.35
2019-03-09T00:50:18.041Z,8.58
2019-03-09T00:52:49.649Z,5.65
2019-03-09T00:55:20.896Z,9.50
2019-03-09T00:57:52.272Z,9.38
2019-03-09T01:00:23.566Z,8.05
2019-03-09T01:02:54.920Z,8.68
2019-03-09T01:05:26.080Z,4.47
2019-03-09T01:07:57.400Z,11.22
2019-03-09T01:10:28.711Z,7.28
2019-03-09T01:12:59.993Z,8.25
2019-03-09T01:15:32.046Z,2.02
2019-03-09T01:18:03.383Z,11.38
2019-03-09T01:20:34.592Z,9.70
2019-03-09T01:23:05.860Z,12.25
2019-03-09T01:25:37.104Z,9.73
2019-03-09T01:28:08.443Z,9.53
2019-03-09T01:30:40.656Z,3.70
2019-03-09T01:33:11.889Z,11.45
2019-03-09T01:35:43.108Z,8.58
2019-03-09T01:38:14.423Z,10.87
2019-03-09T01:40:46.115Z,8.37
2019-03-09T01:43:17.607Z,6.67
2019-03-09T01:45:49.457Z,12.28
2019-03-09T01:48:20.761Z,6.47
2019-03-09T01:50:53.338Z,5.40
2019-03-09T01:53:25.064Z,5.97
2019-03-09T01:55:56.547Z,4.97
2019-03-09T01:58:27.701Z,10.03
2019-03-09T02:00:59.213Z,4.53
2019-03-09T02:03:30.431Z,3.70
2019-03-09T02:06:01.885Z,6.72
2019-03-09T02:08:33.126Z,8.30
2019-03-09T02:11:05.020Z,7.83
2019-03-09T02:13:36.233Z,3.33
2019-03-09T02:16:07.416Z,11.85
2019-03-09T02:18:38.634Z,6.33
2019-03-09T02:21:10.193Z,10.28
2019-03-09T02:23:41.529Z,14.00
2019-03-09T02:26:12.804Z,8.35
2019-03-09T02:28:44.058Z,9.08
2019-03-09T02:31:15.273Z,12.90
2019-03-09T02:33:46.630Z,12.05
2019-03-09T02:36:17.882Z,15.60
2019-03-09T02:39:02.691Z,13.48
2019-03-09T02:41:35.946Z,17.98
2019-03-09T02:44:07.165Z,21.27
2019-03-09T02:46:38.414Z,17.30
2019-03-09T02:49:09.671Z,19.37
2019-03-09T02:51:40.902Z,11.65
2019-03-09T02:54:12.207Z,16.82
2019-03-09T02:56:43.412Z,15.78
2019-03-09T02:59:14.686Z,19.77
2019-03-09T03:02:07.636Z,14.10
2019-03-09T03:04:39.253Z,22.00
2019-03-09T03:07:11.528Z,24.07
2019-03-09T03:09:43.191Z,16.43
2019-03-09T03:12:14.493Z,15.78
2019-03-09T03:14:45.783Z,14.57
2019-03-09T03:17:17.500Z,17.10
2019-03-09T03:19:48.742Z,19.07
2019-03-09T03:22:21.439Z,16.63
2019-03-09T03:24:52.702Z,11.33
2019-03-09T03:27:25.063Z,15.60
2019-03-09T03:29:56.314Z,13.87
2019-03-09T03:32:31.180Z,23.45
2019-03-09T03:35:02.580Z,15.27
2019-03-09T03:37:33.906Z,11.30
2019-03-09T03:40:06.316Z,12.55
2019-03-09T03:42:37.476Z,13.03
2019-03-09T03:45:09.414Z,9.77
2019-03-09T03:47:40.595Z,8.20
2019-03-09T03:50:11.949Z,9.60
2019-03-09T03:52:43.206Z,11.07
2019-03-09T03:55:14.424Z,16.05
2019-03-09T03:57:45.642Z,10.53
2019-03-09T04:00:17.592Z,12.45
2019-03-09T04:02:48.750Z,8.60
2019-03-09T04:05:19.975Z,11.70
2019-03-09T04:07:52.372Z,9.93
2019-03-09T04:10:24.219Z,13.13
2019-03-09T04:12:55.812Z,11.88
2019-03-09T04:15:27.096Z,14.27
2019-03-09T04:17:58.316Z,9.18
2019-03-09T04:20:29.541Z,12.90
2019-03-09T04:23:00.693Z,11.87
2019-03-09T04:25:31.981Z,9.40
2019-03-09T04:28:03.543Z,11.63
2019-03-09T04:30:34.789Z,13.53
2019-03-09T04:33:05.940Z,10.32
2019-03-09T04:35:37.239Z,16.32
2019-03-09T04:38:08.609Z,10.78
2019-03-09T04:40:39.910Z,13.85
2019-03-09T04:43:11.168Z,10.30
2019-03-09T04:45:42.362Z,7.47
2019-03-09T04:48:13.512Z,12.58
2019-03-09T04:50:44.685Z,9.08
2019-03-09T04:53:15.873Z,9.57
2019-03-09T04:55:47.077Z,7.87
2019-03-09T04:58:18.605Z,12.33
2019-03-09T05:00:50.163Z,9.53
2019-03-09T05:03:21.653Z,11.95
2019-03-09T05:05:53.340Z,8.83
2019-03-09T05:09:00.130Z,9.20
2019-03-09T05:11:33.595Z,7.45
2019-03-09T05:14:11.142Z,10.98
2019-03-09T05:16:43.527Z,8.85
2019-03-09T05:19:14.685Z,9.35
2019-03-09T05:21:46.049Z,8.05
2019-03-09T05:24:19.122Z,8.73
2019-03-09T05:26:50.708Z,7.05
2019-03-09T05:29:22.274Z,6.70
2019-03-09T05:31:53.450Z,6.80
2019-03-09T05:34:24.676Z,5.33
2019-03-09T05:36:56.879Z,5.40
2019-03-09T05:39:28.081Z,1.57
2019-03-09T05:41:59.743Z,7.40
2019-03-09T05:44:30.982Z,3.95
2019-03-09T05:47:02.741Z,6.60
2019-03-09T05:49:34.324Z,7.67
2019-03-09T05:52:36.653Z,7.47
2019-03-09T05:55:16.139Z,11.78
2019-03-09T05:57:47.687Z,10.38
2019-03-09T06:00:18.896Z,11.20
2019-03-09T06:02:50.096Z,12.00
2019-03-09T06:06:08.660Z,13.00
2019-03-09T06:08:40.009Z,10.68
2019-03-09T06:11:11.587Z,19.10
2019-03-09T06:13:43.383Z,6.37
2019-03-09T06:16:14.544Z,22.80
2019-03-09T06:18:45.721Z,15.28
2019-03-09T06:21:16.975Z,16.27
2019-03-09T06:23:48.238Z,13.15
2019-03-09T06:26:19.425Z,13.58
2019-03-09T06:28:50.670Z,23.03
2019-03-09T06:31:21.880Z,23.47
2019-03-09T06:33:55.444Z,18.85
2019-03-09T06:37:00.177Z,19.50
2019-03-09T06:39:43.875Z,16.05
2019-03-09T06:42:34.720Z,11.25
2019-03-09T06:45:07.737Z,16.93
2019-03-09T06:47:38.976Z,17.00
2019-03-09T06:50:12.143Z,13.85
2019-03-09T06:52:43.896Z,20.12
2019-03-09T06:55:15.288Z,13.53
2019-03-09T06:57:46.531Z,19.65
2019-03-09T07:00:39.221Z,14.35
2019-03-09T07:03:11.104Z,19.15
2019-03-09T07:05:42.447Z,16.87
2019-03-09T07:08:13.773Z,26.82
2019-03-09T07:10:45.786Z,13.72
2019-03-09T07:13:17.311Z,13.88
2019-03-09T07:15:48.857Z,17.65
2019-03-09T07:18:26.195Z,18.45
2019-03-09T07:20:57.524Z,23.80
2019-03-09T07:23:31.112Z,23.38
2019-03-09T07:26:05.050Z,19.92
2019-03-09T07:28:36.301Z,19.20
2019-03-09T07:31:07.646Z,15.45
2019-03-09T07:33:38.827Z,16.05
2019-03-09T07:36:10.079Z,15.83
2019-03-09T07:38:41.326Z,24.00
2019-03-09T07:41:12.595Z,25.30
2019-03-09T07:43:43.848Z,26.68
2019-03-09T07:46:14.996Z,18.67
2019-03-09T07:48:46.262Z,21.60
2019-03-09T07:51:17.401Z,10.93
2019-03-09T07:53:48.623Z,18.12
2019-03-09T07:56:19.791Z,23.75
2019-03-09T07:58:51.071Z,20.27
2019-03-09T08:03:45.126Z,12.50
2019-03-09T08:06:16.472Z,14.45
2019-03-09T08:08:47.976Z,9.70
2019-03-09T08:11:20.157Z,17.95
2019-03-09T08:13:51.324Z,21.52
2019-03-09T08:16:22.579Z,19.60
2019-03-09T08:18:54.226Z,22.80
2019-03-09T08:21:25.569Z,18.27
2019-03-09T08:23:56.900Z,18.27
2019-03-09T08:26:28.095Z,10.72
2019-03-09T08:28:59.557Z,8.95
2019-03-09T08:31:30.803Z,28.92
2019-03-09T08:34:02.129Z,17.37
2019-03-09T08:36:35.063Z,16.73
2019-03-09T08:39:07.444Z,24.07
2019-03-09T08:41:39.342Z,10.65
2019-03-09T08:44:10.627Z,10.00
2019-03-09T08:46:41.902Z,12.75
2019-03-09T08:49:13.097Z,15.15
2019-03-09T08:51:44.706Z,8.20
2019-03-09T08:54:16.071Z,10.08
2019-03-09T08:56:47.821Z,10.48
2019-03-09T08:59:19.170Z,16.57
2019-03-09T09:01:50.474Z,19.12
2019-03-09T09:04:21.772Z,16.37
2019-03-09T09:06:53.510Z,18.02
2019-03-09T09:09:25.062Z,11.00
2019-03-09T09:11:56.347Z,14.23
2019-03-09T09:14:28.065Z,12.13
2019-03-09T09:16:59.924Z,14.23
2019-03-09T09:19:31.199Z,16.25
2019-03-09T09:22:02.442Z,12.20
2019-03-09T09:24:34.128Z,17.12
2019-03-09T09:27:05.581Z,18.80
2019-03-09T09:29:37.717Z,10.75
2019-03-09T09:32:09.017Z,8.43
2019-03-09T09:34:40.286Z,14.15
2019-03-09T09:37:12.843Z,14.60
2019-03-09T09:39:44.235Z,19.15
2019-03-09T09:42:15.633Z,8.50
2019-03-09T09:45:41.047Z,9.15
2019-03-09T09:48:12.348Z,11.43
2019-03-09T09:50:43.586Z,6.90
2019-03-09T09:53:15.270Z,20.23
2019-03-09T09:55:46.747Z,16.52
2019-03-09T09:58:18.096Z,15.85
2019-03-09T10:00:49.307Z,12.70
2019-03-09T10:03:28.601Z,10.68
2019-03-09T10:06:05.870Z,16.02
2019-03-09T10:09:52.595Z,15.08
2019-03-09T10:12:59.357Z,13.62
2019-03-09T10:15:35.736Z,6.95
2019-03-09T10:18:07.061Z,14.47
2019-03-09T10:20:39.037Z,17.67
2019-03-09T10:23:12.190Z,10.75
2019-03-09T10:27:40.175Z,13.22
2019-03-09T10:30:22.626Z,15.78
2019-03-09T10:32:54.031Z,10.63
2019-03-09T10:35:32.069Z,14.15
2019-03-09T10:38:03.329Z,12.05
2019-03-09T10:40:34.855Z,16.37
2019-03-09T10:43:06.331Z,11.00
2019-03-09T10:45:37.862Z,22.20
2019-03-09T10:48:23.048Z,9.33
2019-03-09T10:50:56.874Z,18.15
2019-03-09T10:55:42.612Z,18.12
2019-03-09T10:58:34.478Z,12.63
2019-03-09T11:01:07.843Z,12.30
2019-03-09T11:03:39.239Z,10.13
2019-03-09T11:06:11.952Z,10.55
2019-03-09T11:08:45.879Z,8.05
2019-03-09T11:11:19.413Z,13.22
2019-03-09T11:13:52.181Z,13.62
2019-03-09T11:16:23.924Z,14.05
2019-03-09T11:18:57.330Z,11.95
2019-03-09T11:21:29.729Z,9.38
2019-03-09T11:24:01.341Z,9.33
2019-03-09T11:26:32.600Z,10.82
2019-03-09T11:29:04.170Z,9.18
2019-03-09T11:31:35.655Z,9.33
2019-03-09T11:34:06.901Z,13.10
2019-03-09T11:36:38.342Z,18.10
2019-03-09T11:39:09.973Z,18.10
2019-03-09T11:41:41.792Z,18.25
2019-03-09T11:44:13.065Z,8.08
2019-03-09T11:46:44.314Z,12.13
2019-03-09T11:49:15.701Z,10.18
2019-03-09T11:51:47.511Z,10.95
2019-03-09T11:54:18.808Z,17.95
2019-03-09T11:56:50.192Z,16.23
2019-03-09T11:59:21.868Z,9.73
2019-03-09T12:01:53.927Z,16.12
2019-03-09T12:04:25.635Z,13.60
2019-03-09T12:06:58.679Z,9.10
2019-03-09T12:09:30.001Z,9.30
2019-03-09T12:12:04.297Z,17.90
2019-03-09T12:14:35.548Z,10.40
2019-03-09T12:17:12.604Z,6.87
2019-03-09T12:19:41.091Z,12.88
2019-03-09T12:22:12.352Z,15.48
2019-03-09T12:24:43.597Z,10.00
2019-03-09T12:27:18.104Z,17.98
2019-03-09T12:29:49.736Z,21.93
2019-03-09T12:32:21.180Z,14.87
2019-03-09T12:34:52.400Z,15.53
2019-03-09T12:37:24.136Z,24.30
2019-03-09T12:39:55.429Z,11.18
2019-03-09T12:42:26.958Z,10.70
2019-03-09T12:44:58.280Z,10.95
2019-03-09T12:47:29.975Z,12.03
2019-03-09T12:50:01.281Z,11.93
2019-03-09T12:52:33.296Z,12.18
2019-03-09T12:55:05.694Z,8.93
2019-03-09T12:57:41.379Z,8.30
2019-03-09T13:00:15.067Z,13.85
2019-03-09T13:02:47.724Z,17.23
2019-03-09T13:05:19.390Z,13.83
2019-03-09T13:07:50.962Z,15.28
2019-03-09T13:10:22.891Z,11.80
2019-03-09T13:12:54.568Z,11.70
2019-03-09T13:15:26.315Z,10.60
2019-03-09T13:17:58.957Z,14.60
2019-03-09T13:20:30.593Z,13.30
2019-03-09T13:23:01.921Z,12.43
2019-03-09T13:25:33.592Z,9.88
2019-03-09T13:28:08.669Z,16.02
2019-03-09T13:30:41.294Z,12.45
2019-03-09T13:33:15.468Z,7.65
2019-03-09T13:35:46.694Z,12.13
2019-03-09T13:38:18.135Z,11.43
2019-03-09T13:40:49.592Z,20.82
2019-03-09T13:43:20.941Z,7.85
2019-03-09T13:45:52.145Z,14.55
2019-03-09T13:48:24.073Z,11.57
2019-03-09T13:50:55.578Z,8.13
2019-03-09T13:53:26.891Z,15.70
2019-03-09T13:56:00.288Z,15.55
2019-03-09T13:58:33.093Z,11.22
2019-03-09T14:01:04.460Z,12.53
2019-03-09T14:03:35.772Z,9.90
2019-03-09T14:06:07.218Z,12.63
2019-03-09T14:08:44.398Z,20.50
2019-03-09T14:11:17.334Z,13.78
2019-03-09T14:13:48.959Z,21.48
2019-03-09T14:16:24.495Z,17.60
2019-03-09T14:18:56.159Z,11.53
2019-03-09T14:21:31.037Z,17.07
2019-03-09T14:24:02.917Z,14.23
2019-03-09T14:26:34.501Z,18.40
2019-03-09T14:29:07.728Z,16.07
2019-03-09T14:31:44.264Z,20.08
2019-03-09T14:34:17.021Z,17.85
2019-03-09T14:36:49.417Z,16.77
2019-03-09T14:39:21.597Z,14.73
2019-03-09T14:41:53.331Z,12.60
2019-03-09T14:44:26.323Z,11.28
2019-03-09T14:46:58.007Z,11.00
2019-03-09T14:49:29.398Z,7.95
2019-03-09T14:52:01.889Z,10.03
2019-03-09T14:54:33.580Z,8.43
2019-03-09T14:57:05.284Z,7.20
2019-03-09T14:59:36.936Z,3.45
2019-03-09T15:02:08.152Z,7.27
2019-03-09T15:04:39.839Z,8.77
2019-03-09T15:07:11.114Z,10.30
2019-03-09T15:09:42.332Z,6.53
2019-03-09T15:12:14.190Z,8.57
2019-03-09T15:14:45.378Z,8.35
2019-03-09T15:17:16.692Z,9.65
2019-03-09T15:19:47.861Z,13.62
2019-03-09T15:22:19.250Z,8.80
2019-03-09T15:24:50.489Z,7.30
2019-03-09T15:27:21.687Z,9.58
2019-03-09T15:29:53.268Z,11.12
2019-03-09T15:32:24.494Z,16.52
2019-03-09T15:34:55.790Z,8.38
2019-03-09T15:37:27.179Z,12.87
2019-03-09T15:39:58.404Z,9.25
2019-03-09T15:42:29.638Z,10.48
2019-03-09T15:45:02.647Z,6.83
2019-03-09T15:47:40.825Z,8.50
2019-03-09T15:50:13.315Z,6.37
2019-03-09T15:52:44.468Z,11.95
2019-03-09T15:55:16.206Z,18.75
2019-03-09T15:57:47.408Z,13.83
2019-03-09T16:00:19.903Z,10.40
2019-03-09T16:02:51.522Z,2.98
2019-03-09T16:05:22.737Z,16.77
2019-03-09T16:07:54.008Z,14.17
2019-03-09T16:10:25.264Z,14.58
2019-03-09T16:12:56.471Z,9.63
2019-03-09T16:15:28.286Z,10.50
2019-03-09T16:17:59.469Z,17.98
2019-03-09T16:20:30.647Z,11.80
2019-03-09T16:23:01.894Z,11.22
2019-03-09T16:25:33.193Z,9.48
2019-03-09T16:28:04.814Z,12.93
2019-03-09T16:30:36.062Z,13.32
2019-03-09T16:33:07.830Z,7.93
2019-03-09T16:35:39.046Z,12.70
2019-03-09T16:38:10.284Z,14.67
2019-03-09T16:40:41.891Z,7.12
2019-03-09T16:43:13.639Z,4.53
2019-03-09T16:45:45.392Z,9.40
2019-03-09T16:48:16.642Z,5.47
2019-03-09T16:50:47.851Z,0.90
2019-03-09T16:53:19.920Z,1.47
2019-03-09T16:55:53.722Z,0.93
2019-03-09T16:58:24.612Z,2.30
2019-03-09T17:00:55.779Z,3.90
2019-03-09T17:03:27.116Z,1.97
2019-03-09T17:05:58.278Z,0.33
2019-03-09T17:08:29.577Z,0.80
2019-03-09T17:11:00.831Z,0.80
2019-03-09T17:13:32.067Z,0.53
2019-03-09T17:16:03.219Z,2.70
2019-03-09T17:18:34.955Z,0.70
2019-03-09T17:21:06.816Z,3.23
2019-03-09T17:23:38.091Z,2.50
2019-03-09T17:26:09.265Z,2.83
2019-03-09T17:28:40.476Z,0.77
2019-03-09T17:31:12.264Z,1.10
2019-03-09T17:33:43.547Z,1.53
2019-03-09T17:36:15.185Z,1.10
2019-03-09T17:38:46.388Z,1.53
2019-03-09T17:41:17.592Z,1.00
2019-03-09T17:43:48.827Z,1.40
2019-03-09T17:46:20.118Z,1.37
2019-03-09T17:48:51.312Z,1.73
2019-03-09T17:51:22.487Z,2.00
2019-03-09T17:53:53.823Z,2.33
2019-03-09T17:56:24.974Z,3.27
2019-03-09T17:58:56.471Z,1.90
2019-03-09T18:01:27.742Z,2.37
2019-03-09T18:03:59.003Z,1.63
2019-03-09T18:06:30.164Z,1.67
2019-03-09T18:09:01.406Z,0.50
2019-03-09T18:11:34.214Z,1.37
2019-03-09T18:14:07.167Z,3.10
2019-03-09T18:16:38.637Z,1.93
2019-03-09T18:19:10.000Z,2.00
2019-03-09T18:21:41.267Z,1.93
2019-03-09T18:24:12.652Z,1.80
2019-03-09T18:26:43.847Z,2.30
2019-03-09T18:29:15.146Z,1.00
2019-03-09T18:31:46.416Z,1.57
2019-03-09T18:34:18.320Z,1.37
2019-03-09T18:36:50.516Z,3.33
2019-03-09T18:39:21.703Z,1.50
2019-03-09T18:41:52.954Z,2.07
2019-03-09T18:44:24.235Z,2.37
2019-03-09T18:46:55.543Z,3.27
2019-03-09T18:49:26.791Z,11.10
2019-03-09T18:51:58.574Z,4.73
2019-03-09T18:54:29.776Z,4.00
2019-03-09T18:57:01.601Z,12.33
2019-03-09T18:59:33.940Z,6.77
2019-03-09T19:02:05.167Z,2.33
2019-03-09T19:04:36.568Z,3.37
2019-03-09T19:07:08.194Z,6.30
2019-03-09T19:09:39.948Z,1.63
2019-03-09T19:12:11.355Z,2.37
2019-03-09T19:14:42.950Z,4.37
2019-03-09T19:17:14.254Z,4.90
2019-03-09T19:19:45.560Z,6.17
2019-03-09T19:22:17.304Z,4.23
2019-03-09T19:24:48.583Z,4.40
2019-03-09T19:27:19.779Z,5.47
2019-03-09T19:29:51.049Z,7.43
2019-03-09T19:32:22.323Z,2.03
2019-03-09T19:34:53.577Z,11.40
2019-03-09T19:37:25.088Z,5.60
2019-03-09T19:39:56.638Z,7.13
2019-03-09T19:42:27.836Z,6.00
2019-03-09T19:44:59.223Z,7.33
2019-03-09T19:47:30.803Z,6.57
2019-03-09T19:50:02.183Z,4.23
2019-03-09T19:52:33.695Z,9.70
2019-03-09T19:55:05.379Z,9.03
2019-03-09T19:57:37.558Z,12.47
2019-03-09T20:00:09.695Z,7.57
2019-03-09T20:02:41.042Z,9.73
2019-03-09T20:05:13.881Z,6.10
2019-03-09T20:07:46.208Z,2.63
2019-03-09T20:10:17.386Z,11.50
2019-03-09T20:12:48.623Z,7.30
2019-03-09T20:15:19.886Z,7.13
2019-03-09T20:17:51.079Z,5.17
2019-03-09T20:20:23.279Z,5.60
2019-03-09T20:22:54.522Z,2.93
2019-03-09T20:25:25.783Z,6.17
2019-03-09T20:27:57.043Z,4.37
2019-03-09T20:30:28.328Z,2.93
2019-03-09T20:32:59.736Z,9.33
2019-03-09T20:35:31.065Z,4.27
2019-03-09T20:38:02.418Z,4.67
2019-03-09T20:40:34.006Z,5.07
2019-03-09T20:43:05.716Z,5.90
2019-03-09T20:45:36.989Z,3.80
2019-03-09T20:48:08.340Z,4.63
2019-03-09T20:50:39.648Z,5.40
2019-03-09T20:53:11.101Z,3.00
2019-03-09T20:55:42.641Z,1.70
2019-03-09T20:58:13.965Z,1.73
2019-03-09T21:00:46.009Z,3.10
2019-03-09T21:03:17.168Z,1.30
2019-03-09T21:05:48.399Z,2.23
2019-03-09T21:08:19.517Z,2.37
2019-03-09T21:10:50.913Z,3.73
2019-03-09T21:13:22.151Z,3.40
2019-03-09T21:15:54.396Z,5.90
2019-03-09T21:18:25.884Z,8.43
2019-03-09T21:20:57.084Z,5.33
2019-03-09T21:23:28.312Z,4.20
2019-03-09T21:25:59.461Z,4.33
2019-03-09T21:28:30.809Z,5.03
2019-03-09T21:31:02.258Z,8.07
2019-03-09T21:33:33.562Z,5.37
2019-03-09T21:36:04.785Z,3.73
2019-03-09T21:38:36.026Z,7.10
2019-03-09T21:41:07.283Z,5.60
2019-03-09T21:43:38.561Z,5.57
2019-03-09T21:46:10.112Z,10.43
2019-03-09T21:48:41.680Z,15.20
2019-03-09T21:51:12.872Z,4.23
2019-03-09T21:53:44.071Z,9.23
2019-03-09T21:56:15.361Z,7.95
2019-03-09T21:58:46.615Z,4.12
2019-03-09T22:01:17.821Z,11.30
2019-03-09T22:03:49.057Z,6.53
2019-03-09T22:06:20.224Z,10.93
2019-03-09T22:08:51.740Z,14.87
2019-03-09T22:11:22.930Z,9.30
2019-03-09T22:13:54.088Z,7.30
2019-03-09T22:16:25.290Z,11.55
2019-03-09T22:18:56.538Z,10.20
2019-03-09T22:21:27.664Z,11.40
2019-03-09T22:23:58.866Z,4.77
2019-03-09T22:26:30.010Z,13.60
2019-03-09T22:29:01.350Z,9.90
2019-03-09T22:31:33.068Z,7.07
2019-03-09T22:34:04.421Z,5.87
2019-03-09T22:36:35.716Z,11.20
2019-03-09T22:39:07.107Z,8.28
2019-03-09T22:41:38.970Z,12.77
2019-03-09T22:44:10.212Z,11.23
2019-03-09T22:46:41.403Z,6.77
2019-03-09T22:49:12.616Z,9.38
2019-03-09T22:51:43.792Z,15.45
2019-03-09T22:54:15.012Z,10.43
2019-03-09T22:56:46.282Z,13.48
2019-03-09T22:59:18.934Z,10.55
2019-03-09T23:01:50.203Z,11.07
2019-03-09T23:04:21.465Z,12.47
2019-03-09T23:06:52.596Z,12.73
2019-03-09T23:09:23.762Z,16.12
2019-03-09T23:11:54.941Z,8.35
2019-03-09T23:14:26.560Z,15.93
2019-03-09T23:16:57.779Z,11.70
2019-03-09T23:19:28.946Z,8.23
2019-03-09T23:22:00.200Z,9.25
2019-03-09T23:24:37.471Z,6.75
2019-03-09T23:27:24.079Z,13.28
2019-03-09T23:29:55.751Z,13.60
2019-03-09T23:32:32.759Z,6.05
2019-03-09T23:35:04.546Z,13.15
2019-03-09T23:37:37.818Z,7.58
2019-03-09T23:40:11.849Z,9.57
2019-03-09T23:42:43.673Z,13.32
2019-03-09T23:45:15.976Z,9.83
2019-03-09T23:48:29.707Z,10.08
2019-03-09T23:51:01.807Z,8.98
2019-03-09T23:53:34.135Z,9.85
2019-03-09T23:56:05.399Z,16.82
2019-03-09T23:58:36.607Z,8.98
